createdAt,value
2017-11-19T00:00:55.304Z,8.27
2017-11-19T00:03:23.131Z,9.00
2017-11-19T00:05:50.917Z,8.67
2017-11-19T00:08:18.762Z,8.23
2017-11-19T00:10:46.552Z,8.73
2017-11-19T00:13:14.321Z,8.80
2017-11-19T00:15:42.107Z,9.10
2017-11-19T00:18:09.989Z,8.67
2017-11-19T00:20:37.778Z,9.00
2017-11-19T00:23:05.597Z,8.97
2017-11-19T00:25:34.166Z,8.03
2017-11-19T00:28:01.995Z,8.20
2017-11-19T00:30:29.875Z,7.30
2017-11-19T00:32:57.681Z,8.13
2017-11-19T00:35:25.452Z,7.90
2017-11-19T00:37:53.223Z,8.10
2017-11-19T00:40:21.031Z,7.60
2017-11-19T00:42:49.783Z,7.90
2017-11-19T00:45:17.553Z,7.63
2017-11-19T00:47:45.294Z,8.37
2017-11-19T00:50:13.094Z,8.30
2017-11-19T00:52:40.902Z,7.67
2017-11-19T00:55:08.765Z,7.83
2017-11-19T00:57:36.518Z,7.43
2017-11-19T01:00:04.291Z,7.30
2017-11-19T01:02:32.126Z,7.77
2017-11-19T01:04:59.996Z,6.80
2017-11-19T01:07:27.824Z,7.30
2017-11-19T01:09:55.560Z,6.90
2017-11-19T01:12:23.358Z,7.00
2017-11-19T01:14:51.257Z,7.50
2017-11-19T01:17:19.000Z,7.30
2017-11-19T01:19:46.769Z,7.20
2017-11-19T01:22:14.625Z,6.27
2017-11-19T01:24:42.433Z,7.33
2017-11-19T01:27:10.254Z,6.27
2017-11-19T01:29:38.805Z,7.13
2017-11-19T01:32:06.596Z,6.57
2017-11-19T01:34:34.417Z,6.20
2017-11-19T01:37:02.297Z,6.23
2017-11-19T01:39:30.069Z,6.50
2017-11-19T01:41:58.618Z,5.47
2017-11-19T01:44:26.479Z,6.20
2017-11-19T01:46:54.272Z,5.70
2017-11-19T01:49:22.080Z,5.27
2017-11-19T01:51:49.959Z,5.73
2017-11-19T01:54:17.777Z,6.40
2017-11-19T01:56:45.590Z,5.37
2017-11-19T01:59:13.701Z,5.20
2017-11-19T02:01:41.564Z,5.83
2017-11-19T02:04:09.338Z,5.20
2017-11-19T02:06:37.105Z,5.70
2017-11-19T02:09:04.929Z,5.77
2017-11-19T02:11:32.652Z,5.43
2017-11-19T02:14:00.530Z,5.60
2017-11-19T02:16:28.272Z,5.60
2017-11-19T02:18:56.066Z,5.33
2017-11-19T02:21:23.925Z,5.13
2017-11-19T02:23:51.699Z,5.10
2017-11-19T02:26:19.475Z,5.90
2017-11-19T02:28:48.253Z,5.47
2017-11-19T02:31:16.048Z,5.13
2017-11-19T02:33:43.796Z,4.97
2017-11-19T02:36:11.636Z,5.83
2017-11-19T02:38:39.418Z,5.33
2017-11-19T02:41:07.152Z,5.67
2017-11-19T02:43:34.933Z,5.13
2017-11-19T02:46:02.691Z,6.10
2017-11-19T02:48:30.511Z,5.73
2017-11-19T02:50:58.318Z,5.43
2017-11-19T02:53:26.146Z,4.83
2017-11-19T02:55:54.668Z,6.10
2017-11-19T02:58:22.546Z,5.10
2017-11-19T03:00:50.327Z,5.00
2017-11-19T03:03:18.068Z,5.67
2017-11-19T03:05:45.992Z,5.10
2017-11-19T03:08:13.825Z,4.80
2017-11-19T03:10:41.611Z,5.00
2017-11-19T03:13:09.415Z,4.93
2017-11-19T03:15:37.159Z,5.50
2017-11-19T03:18:04.948Z,5.20
2017-11-19T03:20:32.830Z,4.63
2017-11-19T03:23:00.593Z,5.03
2017-11-19T03:25:30.002Z,5.33
2017-11-19T03:27:57.796Z,4.27
2017-11-19T03:30:25.609Z,4.77
2017-11-19T03:32:53.434Z,5.10
2017-11-19T03:35:21.241Z,4.10
2017-11-19T03:37:49.829Z,5.03
2017-11-19T03:40:17.642Z,4.47
2017-11-19T03:42:45.400Z,4.30
2017-11-19T03:45:13.235Z,4.27
2017-11-19T03:47:41.837Z,3.77
2017-11-19T03:50:09.644Z,4.43
2017-11-19T03:52:37.683Z,3.47
2017-11-19T03:55:05.492Z,3.57
2017-11-19T03:57:33.323Z,4.37
2017-11-19T04:00:01.195Z,3.93
2017-11-19T04:02:29.107Z,3.70
2017-11-19T04:04:56.972Z,3.70
2017-11-19T04:07:24.727Z,3.60
2017-11-19T04:09:52.566Z,4.13
2017-11-19T04:12:20.345Z,3.70
2017-11-19T04:14:48.152Z,3.83
2017-11-19T04:17:16.090Z,3.87
2017-11-19T04:19:43.886Z,3.70
2017-11-19T04:22:11.726Z,3.60
2017-11-19T04:24:40.017Z,4.10
2017-11-19T04:27:07.788Z,3.27
2017-11-19T04:29:35.653Z,3.40
2017-11-19T04:32:03.540Z,3.73
2017-11-19T04:34:31.330Z,3.50
2017-11-19T04:36:59.883Z,3.23
2017-11-19T04:39:27.638Z,3.10
2017-11-19T04:41:55.565Z,3.50
2017-11-19T04:44:23.381Z,3.53
2017-11-19T04:46:51.271Z,4.47
2017-11-19T04:49:19.978Z,3.90
2017-11-19T04:51:47.801Z,4.50
2017-11-19T04:54:15.591Z,5.03
2017-11-19T04:56:43.346Z,4.83
2017-11-19T04:59:11.185Z,4.50
2017-11-19T05:01:39.014Z,4.97
2017-11-19T05:04:06.788Z,4.80
2017-11-19T05:06:34.565Z,5.23
2017-11-19T05:09:02.471Z,4.50
2017-11-19T05:11:30.294Z,4.73
2017-11-19T05:13:58.907Z,4.57
2017-11-19T05:16:26.645Z,4.20
2017-11-19T05:18:54.474Z,4.40
2017-11-19T05:21:22.254Z,5.20
2017-11-19T05:23:50.031Z,5.17
2017-11-19T05:26:17.805Z,3.90
2017-11-19T05:28:46.462Z,4.50
2017-11-19T05:31:14.263Z,3.80
2017-11-19T05:33:42.808Z,4.03
2017-11-19T05:36:10.641Z,3.90
2017-11-19T05:38:38.396Z,3.90
2017-11-19T05:41:06.215Z,3.90
2017-11-19T05:43:34.007Z,4.03
2017-11-19T05:46:02.510Z,4.80
2017-11-19T05:48:30.312Z,3.97
2017-11-19T05:50:58.104Z,3.70
2017-11-19T05:53:25.895Z,4.70
2017-11-19T05:55:53.686Z,4.03
2017-11-19T05:58:21.466Z,4.40
2017-11-19T06:00:49.191Z,3.93
2017-11-19T06:03:17.091Z,4.53
2017-11-19T06:05:44.859Z,3.47
2017-11-19T06:08:12.602Z,4.20
2017-11-19T06:10:40.358Z,3.93
2017-11-19T06:13:08.089Z,4.00
2017-11-19T06:15:35.979Z,3.63
2017-11-19T06:18:03.831Z,3.40
2017-11-19T06:20:31.649Z,3.23
2017-11-19T06:23:00.222Z,3.70
2017-11-19T06:25:27.941Z,3.73
2017-11-19T06:27:55.752Z,4.07
2017-11-19T06:30:23.539Z,3.70
2017-11-19T06:32:51.275Z,3.77
2017-11-19T06:35:19.010Z,4.80
2017-11-19T06:37:46.891Z,3.73
2017-11-19T06:40:14.743Z,3.47
2017-11-19T06:42:42.553Z,3.40
2017-11-19T06:45:10.389Z,3.43
2017-11-19T06:47:38.129Z,4.03
2017-11-19T06:50:06.006Z,3.60
2017-11-19T06:52:33.871Z,3.83
2017-11-19T06:55:01.627Z,3.77
2017-11-19T06:57:29.401Z,4.87
2017-11-19T06:59:57.189Z,6.80
2017-11-19T07:02:24.976Z,7.27
2017-11-19T07:04:52.751Z,7.03
2017-11-19T07:07:20.515Z,7.10
2017-11-19T07:09:48.328Z,8.03
2017-11-19T07:12:16.107Z,6.90
2017-11-19T07:14:44.059Z,5.60
2017-11-19T07:17:11.836Z,5.63
2017-11-19T07:19:39.589Z,5.23
2017-11-19T07:22:07.485Z,5.30
2017-11-19T07:24:35.218Z,5.23
2017-11-19T07:27:03.794Z,4.70
2017-11-19T07:29:31.614Z,4.33
2017-11-19T07:31:59.446Z,4.57
2017-11-19T07:34:27.983Z,3.90
2017-11-19T07:36:55.815Z,4.77
2017-11-19T07:39:23.567Z,4.70
2017-11-19T07:41:51.313Z,4.07
2017-11-19T07:44:19.958Z,5.03
2017-11-19T07:46:47.777Z,8.50
2017-11-19T07:49:15.602Z,3.90
2017-11-19T07:51:43.465Z,4.57
2017-11-19T07:54:11.828Z,4.03
2017-11-19T07:56:40.533Z,4.40
2017-11-19T07:59:08.352Z,4.70
2017-11-19T08:01:36.187Z,5.50
2017-11-19T08:04:04.921Z,6.20
2017-11-19T08:06:34.029Z,5.63
2017-11-19T08:09:02.326Z,6.20
2017-11-19T08:11:31.387Z,6.17
2017-11-19T08:13:59.946Z,6.93
2017-11-19T08:16:27.722Z,9.97
2017-11-19T08:18:55.615Z,11.00
2017-11-19T08:21:23.466Z,9.23
2017-11-19T08:23:55.075Z,9.00
2017-11-19T08:26:22.845Z,11.47
2017-11-19T08:28:50.739Z,12.30
2017-11-19T08:31:18.585Z,11.93
2017-11-19T08:33:46.472Z,11.60
2017-11-19T08:36:14.321Z,12.60
2017-11-19T08:38:43.117Z,12.80
2017-11-19T08:41:10.912Z,13.37
2017-11-19T08:43:38.665Z,12.40
2017-11-19T08:46:06.381Z,9.50
2017-11-19T08:48:34.239Z,10.53
2017-11-19T08:51:02.059Z,12.70
2017-11-19T08:53:29.809Z,12.87
2017-11-19T08:55:57.653Z,14.07
2017-11-19T08:58:25.485Z,14.53
2017-11-19T09:00:53.300Z,15.27
2017-11-19T09:03:21.162Z,19.97
2017-11-19T09:05:48.919Z,25.60
2017-11-19T09:08:16.726Z,29.37
2017-11-19T09:10:44.589Z,26.07
2017-11-19T09:13:12.356Z,26.63
2017-11-19T09:15:40.174Z,22.80
2017-11-19T09:18:07.982Z,25.13
2017-11-19T09:20:35.959Z,23.93
2017-11-19T09:23:03.813Z,24.17
2017-11-19T09:25:31.793Z,25.07
2017-11-19T09:27:59.632Z,26.27
2017-11-19T09:30:30.201Z,26.63
2017-11-19T09:33:45.220Z,23.70
2017-11-19T09:36:25.407Z,23.70
2017-11-19T09:38:53.489Z,26.77
2017-11-19T09:41:25.500Z,24.33
2017-11-19T09:43:57.174Z,25.00
2017-11-19T09:46:25.858Z,22.17
2017-11-19T09:48:53.755Z,22.83
2017-11-19T09:51:22.500Z,29.20
2017-11-19T09:57:16.196Z,31.40
2017-11-19T09:59:44.102Z,29.23
2017-11-19T10:02:12.697Z,26.70
2017-11-19T10:04:41.735Z,28.07
2017-11-19T10:07:10.506Z,34.20
2017-11-19T10:16:26.089Z,32.30
2017-11-19T10:18:56.341Z,36.40
2017-11-19T10:21:41.616Z,35.50
2017-11-19T10:24:09.666Z,34.77
2017-11-19T10:26:37.558Z,31.73
2017-11-19T10:29:05.636Z,34.70
2017-11-19T10:31:33.830Z,34.93
2017-11-19T10:34:02.429Z,36.77
2017-11-19T10:36:31.462Z,35.53
2017-11-19T10:42:17.430Z,37.10
2017-11-19T10:44:45.555Z,39.93
2017-11-19T10:50:21.641Z,40.50
2017-11-19T10:52:56.439Z,47.10
2017-11-19T10:55:25.127Z,49.20
2017-11-19T10:57:53.043Z,46.67
2017-11-19T11:00:21.851Z,42.03
2017-11-19T11:03:03.304Z,44.17
2017-11-19T11:08:56.336Z,49.47
2017-11-19T11:11:24.278Z,46.80
2017-11-19T11:13:52.226Z,45.60
2017-11-19T11:16:20.056Z,49.30
2017-11-19T11:18:47.913Z,51.27
2017-11-19T11:21:16.192Z,50.67
2017-11-19T11:23:44.810Z,51.77
2017-11-19T11:26:39.060Z,53.57
2017-11-19T11:29:09.206Z,53.90
2017-11-19T11:31:37.001Z,50.47
2017-11-19T11:47:10.324Z,37.97
2017-11-19T11:49:40.526Z,40.30
2017-11-19T11:52:08.386Z,39.10
2017-11-19T11:54:36.275Z,37.40
2017-11-19T11:57:04.141Z,32.77
2017-11-19T11:59:32.015Z,36.00
2017-11-19T12:01:59.812Z,27.67
2017-11-19T12:04:27.681Z,31.23
2017-11-19T12:06:55.496Z,29.70
2017-11-19T12:09:23.293Z,29.40
2017-11-19T12:11:51.105Z,28.93
2017-11-19T12:14:18.953Z,31.33
2017-11-19T12:16:46.980Z,31.40
2017-11-19T12:19:15.652Z,31.53
2017-11-19T12:25:09.220Z,27.37
2017-11-19T12:27:37.163Z,27.73
2017-11-19T12:30:07.635Z,27.93
2017-11-19T12:32:35.571Z,28.80
2017-11-19T12:35:04.201Z,27.80
2017-11-19T12:37:33.913Z,25.23
2017-11-19T12:40:01.896Z,26.97
2017-11-19T12:42:29.730Z,24.90
2017-11-19T12:44:57.646Z,25.57
2017-11-19T12:47:25.471Z,25.50
2017-11-19T12:49:53.317Z,22.50
2017-11-19T12:52:21.184Z,25.43
2017-11-19T12:54:49.222Z,22.57
2017-11-19T12:57:17.091Z,22.10
2017-11-19T12:59:44.994Z,21.07
2017-11-19T13:02:12.782Z,20.57
2017-11-19T13:04:40.651Z,21.77
2017-11-19T13:07:11.834Z,19.97
2017-11-19T13:09:39.684Z,20.50
2017-11-19T13:12:07.429Z,19.50
2017-11-19T13:14:35.260Z,19.83
2017-11-19T13:17:03.743Z,20.23
2017-11-19T13:19:32.250Z,18.07
2017-11-19T13:22:00.851Z,19.47
2017-11-19T13:24:28.647Z,19.37
2017-11-19T13:26:56.571Z,18.23
2017-11-19T13:29:24.465Z,18.80
2017-11-19T13:31:52.311Z,16.87
2017-11-19T13:34:20.969Z,16.73
2017-11-19T13:36:48.756Z,18.50
2017-11-19T13:39:17.953Z,18.73
2017-11-19T13:41:45.771Z,19.33
2017-11-19T13:44:14.410Z,21.10
2017-11-19T13:46:42.185Z,20.10
2017-11-19T13:49:10.821Z,20.27
2017-11-19T13:51:38.592Z,20.87
2017-11-19T13:54:06.476Z,20.10
2017-11-19T13:56:34.250Z,20.37
2017-11-19T13:59:02.059Z,21.37
2017-11-19T14:01:30.008Z,20.30
2017-11-19T14:03:57.782Z,20.53
2017-11-19T14:06:25.615Z,21.80
2017-11-19T14:08:53.535Z,20.47
2017-11-19T14:11:21.311Z,21.37
2017-11-19T14:13:49.118Z,22.20
2017-11-19T14:16:17.298Z,22.37
2017-11-19T14:18:45.215Z,22.80
2017-11-19T14:21:13.261Z,24.47
2017-11-19T14:23:41.874Z,23.60
2017-11-19T14:26:09.740Z,24.47
2017-11-19T14:28:37.663Z,25.50
2017-11-19T14:31:05.610Z,26.20
2017-11-19T14:33:33.483Z,25.30
2017-11-19T14:36:03.241Z,27.17
2017-11-19T14:38:32.596Z,27.80
2017-11-19T14:41:00.555Z,28.87
2017-11-19T14:50:30.307Z,28.50
2017-11-19T15:10:28.651Z,28.87
2017-11-19T15:12:56.657Z,26.03
2017-11-19T15:15:24.721Z,31.00
2017-11-19T15:17:52.691Z,29.53
2017-11-19T15:27:30.584Z,28.90
2017-11-19T15:30:00.184Z,29.13
2017-11-19T15:32:29.653Z,31.30
2017-11-19T15:38:14.909Z,29.97
2017-11-19T15:40:42.805Z,31.17
2017-11-19T15:43:10.825Z,33.57
2017-11-19T15:45:38.958Z,32.07
2017-11-19T15:48:07.119Z,33.53
2017-11-19T15:50:35.080Z,33.07
2017-11-19T15:53:03.216Z,32.07
2017-11-19T15:55:32.444Z,33.10
2017-11-19T15:58:00.641Z,32.73
2017-11-19T16:03:01.938Z,32.83
2017-11-19T16:05:29.986Z,34.03
2017-11-19T16:07:57.977Z,34.70
2017-11-19T16:10:26.098Z,35.27
2017-11-19T16:12:53.922Z,34.37
2017-11-19T16:15:21.768Z,33.07
2017-11-19T16:17:49.762Z,34.07
2017-11-19T16:20:17.604Z,37.17
2017-11-19T16:22:48.119Z,36.07
2017-11-19T16:28:47.021Z,36.10
2017-11-19T16:31:14.843Z,36.53
2017-11-19T16:33:42.675Z,36.87
2017-11-19T16:36:11.534Z,34.77
2017-11-19T16:38:39.620Z,35.50
2017-11-19T16:41:07.504Z,37.40
2017-11-19T16:43:35.369Z,35.87
2017-11-19T16:46:04.041Z,35.23
2017-11-19T16:48:31.936Z,37.30
2017-11-19T16:51:00.020Z,36.73
2017-11-19T16:53:28.337Z,36.63
2017-11-19T16:55:56.385Z,36.37
2017-11-19T16:58:24.549Z,37.53
2017-11-19T17:00:52.574Z,36.13
2017-11-19T17:03:20.488Z,38.63
2017-11-19T17:05:49.672Z,41.93
2017-11-19T17:08:37.522Z,40.93
2017-11-19T17:13:41.751Z,40.30
2017-11-19T17:16:22.149Z,41.93
2017-11-19T17:18:53.599Z,41.47
2017-11-19T17:21:21.780Z,42.33
2017-11-19T17:23:49.730Z,38.23
2017-11-19T17:26:19.016Z,44.97
2017-11-19T17:31:28.451Z,39.43
2017-11-19T17:33:56.386Z,37.80
2017-11-19T17:36:29.972Z,41.13
2017-11-19T17:38:57.863Z,43.07
2017-11-19T17:41:25.971Z,40.17
2017-11-19T17:43:55.025Z,41.40
2017-11-19T17:46:23.000Z,40.33
2017-11-19T17:48:51.208Z,38.30
2017-11-19T17:51:19.268Z,40.90
2017-11-19T17:53:47.413Z,40.40
2017-11-19T17:56:15.305Z,40.40
2017-11-19T17:58:43.155Z,38.50
2017-11-19T18:01:11.230Z,41.97
2017-11-19T18:03:39.926Z,41.53
2017-11-19T18:06:07.757Z,39.10
2017-11-19T18:08:37.517Z,40.50
2017-11-19T18:11:05.391Z,42.23
2017-11-19T18:17:59.158Z,41.10
2017-11-19T18:20:27.571Z,40.27
2017-11-19T18:22:56.282Z,39.57
2017-11-19T18:25:24.223Z,40.00
2017-11-19T18:27:54.095Z,39.37
2017-11-19T18:32:56.868Z,41.00
2017-11-19T18:38:27.758Z,40.40
2017-11-19T18:40:56.755Z,40.20
2017-11-19T18:43:27.601Z,40.50
2017-11-19T18:45:57.980Z,40.23
2017-11-19T18:48:25.989Z,42.20
2017-11-19T18:50:54.938Z,42.53
2017-11-19T18:53:22.951Z,41.47
2017-11-19T18:55:50.740Z,41.80
2017-11-19T18:58:19.543Z,43.93
2017-11-19T19:00:47.479Z,45.43
2017-11-19T19:03:15.347Z,38.50
2017-11-19T19:05:43.185Z,43.30
2017-11-19T19:08:12.754Z,38.90
2017-11-19T19:10:40.891Z,39.77
2017-11-19T19:13:08.819Z,40.30
2017-11-19T19:15:36.641Z,46.17
2017-11-19T19:18:05.393Z,46.97
2017-11-19T19:20:33.263Z,49.07
2017-11-19T19:23:01.094Z,49.70
2017-11-19T19:25:29.642Z,46.57
2017-11-19T19:27:57.483Z,47.83
2017-11-19T19:30:25.331Z,53.17
2017-11-19T19:32:53.248Z,48.43
2017-11-19T19:35:22.005Z,50.00
2017-11-19T19:37:51.050Z,46.17
2017-11-19T19:40:18.848Z,46.13
2017-11-19T19:42:47.465Z,49.93
2017-11-19T19:45:15.298Z,48.37
2017-11-19T19:47:43.144Z,47.90
2017-11-19T19:50:11.076Z,48.07
2017-11-19T19:52:38.885Z,49.60
2017-11-19T19:55:06.656Z,48.33
2017-11-19T19:57:35.969Z,51.03
2017-11-19T20:00:05.410Z,50.63
2017-11-19T20:02:33.884Z,51.10
2017-11-19T20:05:01.872Z,49.67
2017-11-19T20:07:29.908Z,51.27
2017-11-19T20:09:58.771Z,47.53
2017-11-19T20:12:28.123Z,47.90
2017-11-19T20:14:56.622Z,49.57
2017-11-19T20:17:25.590Z,45.60
2017-11-19T20:19:54.013Z,45.80
2017-11-19T20:22:21.823Z,48.33
2017-11-19T20:24:50.072Z,48.80
2017-11-19T20:27:18.351Z,48.60
2017-11-19T20:29:47.649Z,47.70
2017-11-19T20:32:16.403Z,45.83
2017-11-19T20:34:44.986Z,46.10
2017-11-19T20:37:13.091Z,46.67
2017-11-19T20:39:41.512Z,45.80
2017-11-19T20:42:09.450Z,44.03
2017-11-19T20:44:38.232Z,50.40
2017-11-19T20:47:06.051Z,45.47
2017-11-19T20:49:33.988Z,48.17
2017-11-19T20:52:02.172Z,46.57
2017-11-19T20:54:31.170Z,44.60
2017-11-19T20:56:59.492Z,45.70
2017-11-19T20:59:28.674Z,46.20
2017-11-19T21:01:56.650Z,41.73
2017-11-19T21:04:26.039Z,41.17
2017-11-19T21:06:54.471Z,40.87
2017-11-19T21:09:23.663Z,44.70
2017-11-19T21:11:53.006Z,42.60
2017-11-19T21:14:22.019Z,45.57
2017-11-19T21:16:51.185Z,43.37
2017-11-19T21:19:20.458Z,45.80
2017-11-19T21:21:49.537Z,43.07
2017-11-19T21:24:19.094Z,43.90
2017-11-19T21:26:47.230Z,52.40
2017-11-19T21:29:15.904Z,43.60
2017-11-19T21:31:43.735Z,44.50
2017-11-19T21:34:11.568Z,45.17
2017-11-19T21:36:39.420Z,44.00
2017-11-19T21:39:08.011Z,46.63
2017-11-19T21:41:35.790Z,43.60
2017-11-19T21:44:03.744Z,43.90
2017-11-19T21:46:31.577Z,44.53
2017-11-19T21:48:59.345Z,43.83
2017-11-19T21:51:27.204Z,44.67
2017-11-19T21:53:55.193Z,41.60
2017-11-19T21:56:22.976Z,42.53
2017-11-19T21:58:50.842Z,47.40
2017-11-19T22:01:21.629Z,43.27
2017-11-19T22:03:49.496Z,45.47
2017-11-19T22:06:17.436Z,42.43
2017-11-19T22:08:45.233Z,44.80
2017-11-19T22:11:13.011Z,45.97
2017-11-19T22:13:40.962Z,44.20
2017-11-19T22:16:08.770Z,42.50
2017-11-19T22:18:36.537Z,44.43
2017-11-19T22:21:04.380Z,45.07
2017-11-19T22:23:32.154Z,44.63
2017-11-19T22:26:00.030Z,44.60
2017-11-19T22:28:27.837Z,45.00
2017-11-19T22:30:55.641Z,43.83
2017-11-19T22:33:23.384Z,44.93
2017-11-19T22:35:51.312Z,45.67
2017-11-19T22:38:19.059Z,42.83
2017-11-19T22:40:46.914Z,42.03
2017-11-19T22:43:14.696Z,43.50
2017-11-19T22:45:42.571Z,43.77
2017-11-19T22:48:10.413Z,43.83
2017-11-19T22:50:38.374Z,43.10
2017-11-19T22:53:06.204Z,43.37
2017-11-19T22:55:34.055Z,42.47
2017-11-19T22:58:01.821Z,43.90
2017-11-19T23:00:29.582Z,42.17
2017-11-19T23:02:57.390Z,40.40
2017-11-19T23:05:26.004Z,43.30
2017-11-19T23:07:53.847Z,43.23
2017-11-19T23:10:22.472Z,41.97
2017-11-19T23:12:50.314Z,41.73
2017-11-19T23:15:18.209Z,43.47
2017-11-19T23:17:46.047Z,40.97
2017-11-19T23:20:13.895Z,39.17
2017-11-19T23:22:41.651Z,39.97
2017-11-19T23:25:09.488Z,41.93
2017-11-19T23:27:37.319Z,39.93
2017-11-19T23:30:05.101Z,39.20
2017-11-19T23:32:32.973Z,37.47
2017-11-19T23:35:01.521Z,38.50
2017-11-19T23:37:29.447Z,37.60
2017-11-19T23:39:57.288Z,37.27
2017-11-19T23:42:25.097Z,36.27
2017-11-19T23:44:52.873Z,36.97
2017-11-19T23:47:20.696Z,36.33
2017-11-19T23:49:48.483Z,38.60
2017-11-19T23:52:16.434Z,35.57
2017-11-19T23:54:44.228Z,36.27
2017-11-19T23:57:12.077Z,36.00
2017-11-19T23:59:40.134Z,36.17
